Time;durP1;ratioP1;P1;durP2;ratioP2;P2;SDS_P1;SDS_P2;PMS_P1;PMS_P2;Temp;Humidity;BMP_temperature;BMP_pressure;BME280_temperature;BME280_humidity;BME280_pressure;Samples;Min_cycle;Max_cycle;Signal;HPM_P1;HPM_P2
2021/12/23 00:01:32;;;;;;;27.25;13.98;;;-1.30;85.60;;;;;;6266534;22;20133;-78
2021/12/23 00:03:59;;;;;;;26.33;14.07;;;-1.30;85.40;;;;;;6265361;22;20079;-78
2021/12/23 00:06:35;;;;;;;23.15;13.18;;;-1.40;85.60;;;;;;6254202;22;20027;-78
2021/12/23 00:09:04;;;;;;;24.45;13.82;;;-1.30;85.80;;;;;;6259247;22;20655;-78
2021/12/23 00:11:32;;;;;;;25.67;13.75;;;-1.40;85.70;;;;;;6250432;22;20464;-78
2021/12/23 00:14:04;;;;;;;24.02;13.23;;;-1.30;85.60;;;;;;6251950;22;20111;-78
2021/12/23 00:16:48;;;;;;;27.15;14.05;;;-1.30;84.60;;;;;;6244489;22;20716;-78
2021/12/23 00:19:34;;;;;;;29.17;13.25;;;-1.30;84.40;;;;;;6247564;22;20465;-77
2021/12/23 00:25:07;;;;;;;25.25;13.10;;;-1.30;84.60;;;;;;6261614;22;20047;-78
2021/12/23 00:27:33;;;;;;;25.25;13.48;;;-1.30;85.10;;;;;;6258335;22;20072;-78
2021/12/23 00:30:00;;;;;;;29.58;13.70;;;-1.30;84.70;;;;;;6257444;22;20025;-78
2021/12/23 00:32:27;;;;;;;26.92;13.40;;;-1.30;84.40;;;;;;6259465;22;20041;-78
2021/12/23 00:34:54;;;;;;;26.20;14.00;;;-1.30;84.50;;;;;;6262983;22;20021;-78
2021/12/23 00:37:21;;;;;;;24.02;13.65;;;-1.30;84.40;;;;;;6268015;22;20005;-78
2021/12/23 00:39:48;;;;;;;28.77;13.63;;;-1.30;85.10;;;;;;6265758;22;20489;-78
2021/12/23 00:42:15;;;;;;;28.85;14.52;;;-1.30;85.00;;;;;;6263172;22;20048;-78
2021/12/23 00:44:47;;;;;;;27.42;13.35;;;-1.30;85.10;;;;;;6259994;22;20074;-78
2021/12/23 00:47:14;;;;;;;23.50;13.63;;;-1.20;84.30;;;;;;6262505;22;20103;-78
2021/12/23 00:49:41;;;;;;;29.15;13.70;;;-1.20;83.50;;;;;;6267460;22;20410;-78
2021/12/23 00:52:08;;;;;;;24.08;14.07;;;-1.20;84.70;;;;;;6269327;22;20036;-78
2021/12/23 00:54:36;;;;;;;25.65;13.95;;;-1.20;85.00;;;;;;6266244;22;20322;-78
2021/12/23 00:57:02;;;;;;;28.25;14.38;;;-1.20;84.70;;;;;;6267674;22;20061;-78
2021/12/23 00:59:30;;;;;;;29.75;13.85;;;-1.20;84.20;;;;;;6260458;22;20047;-78
2021/12/23 01:01:56;;;;;;;23.42;13.00;;;-1.20;84.30;;;;;;6260870;22;20012;-78
2021/12/23 01:04:26;;;;;;;27.33;13.50;;;-1.20;84.60;;;;;;6258884;22;20013;-78
2021/12/23 01:06:53;;;;;;;31.00;13.50;;;-1.20;84.20;;;;;;6262249;22;20024;-78
2021/12/23 01:09:21;;;;;;;26.33;14.35;;;-1.20;84.30;;;;;;6260994;22;20024;-78
2021/12/23 01:11:49;;;;;;;29.77;13.68;;;-1.20;85.00;;;;;;6265440;22;20115;-78
2021/12/23 01:19:26;;;;;;;26.25;13.02;;;-1.20;84.20;;;;;;6263723;22;20020;-78
2021/12/23 01:21:53;;;;;;;28.02;14.20;;;-1.20;84.60;;;;;;6260490;22;20020;-78
2021/12/23 01:24:22;;;;;;;28.15;13.55;;;-1.20;83.40;;;;;;6261577;22;20105;-78
2021/12/23 01:26:49;;;;;;;30.60;14.18;;;-1.20;83.30;;;;;;6262203;22;20031;-78
2021/12/23 01:29:16;;;;;;;24.40;13.75;;;-1.20;84.20;;;;;;6262207;22;20093;-78
2021/12/23 01:31:44;;;;;;;24.52;13.38;;;-1.20;83.60;;;;;;6262744;22;20048;-78
2021/12/23 01:34:11;;;;;;;29.52;13.15;;;-1.20;83.80;;;;;;6262014;22;20068;-78
2021/12/23 01:36:38;;;;;;;30.98;13.98;;;-1.20;83.60;;;;;;6260718;22;20060;-78
2021/12/23 01:39:04;;;;;;;23.52;12.85;;;-1.20;83.10;;;;;;6262816;22;20028;-78
2021/12/23 01:41:32;;;;;;;28.08;14.10;;;-1.20;83.80;;;;;;6263029;22;20076;-78
2021/12/23 01:43:58;;;;;;;30.45;15.05;;;-1.20;84.30;;;;;;6260436;22;20051;-78
2021/12/23 01:46:25;;;;;;;27.17;15.10;;;-1.20;84.20;;;;;;6262448;22;20009;-78
2021/12/23 01:48:53;;;;;;;26.60;14.40;;;-1.20;83.80;;;;;;6261582;22;20020;-78
2021/12/23 01:51:20;;;;;;;27.92;14.27;;;-1.20;83.80;;;;;;6262762;22;20059;-78
2021/12/23 01:53:47;;;;;;;25.92;13.70;;;-1.20;83.50;;;;;;6262064;22;20040;-77
2021/12/23 01:56:14;;;;;;;26.00;14.25;;;-1.20;83.80;;;;;;6262602;22;20017;-77
2021/12/23 01:58:42;;;;;;;28.17;14.10;;;-1.20;84.10;;;;;;6260314;22;20140;-78
2021/12/23 02:01:09;;;;;;;26.65;13.32;;;-1.30;83.60;;;;;;6263197;22;20505;-78
2021/12/23 02:03:38;;;;;;;26.35;13.63;;;-1.30;83.90;;;;;;6262887;22;20108;-78
2021/12/23 02:06:05;;;;;;;27.02;13.60;;;-1.30;84.30;;;;;;6262851;22;20040;-78
2021/12/23 02:08:34;;;;;;;25.05;14.32;;;-1.30;84.60;;;;;;6259754;22;20040;-78
2021/12/23 02:11:03;;;;;;;25.63;14.02;;;-1.40;84.80;;;;;;6262756;22;20013;-78
2021/12/23 02:13:29;;;;;;;24.08;14.32;;;-1.40;85.00;;;;;;6261515;22;20086;-78
2021/12/23 02:15:57;;;;;;;26.02;14.23;;;-1.50;85.00;;;;;;6258882;22;20024;-78
2021/12/23 02:18:27;;;;;;;32.28;14.25;;;-1.50;84.90;;;;;;6263487;22;20016;-78
2021/12/23 02:20:57;;;;;;;28.17;15.10;;;-1.60;85.00;;;;;;6263117;22;20025;-78
2021/12/23 02:23:25;;;;;;;30.55;15.45;;;-1.60;84.90;;;;;;6262223;22;20043;-78
2021/12/23 02:25:51;;;;;;;30.15;13.90;;;-1.70;85.00;;;;;;6261418;22;20025;-77
2021/12/23 02:28:22;;;;;;;26.40;14.45;;;-1.70;84.90;;;;;;6262634;22;20065;-77
2021/12/23 02:30:51;;;;;;;27.60;14.57;;;-1.70;85.10;;;;;;6265119;22;20921;-77
2021/12/23 02:33:21;;;;;;;27.30;14.75;;;-1.80;85.20;;;;;;6265053;22;20116;-77
2021/12/23 02:35:49;;;;;;;25.80;14.30;;;-1.80;85.30;;;;;;6263622;22;20080;-77
2021/12/23 02:38:15;;;;;;;27.30;15.07;;;-1.80;85.40;;;;;;6264289;22;20021;-77
2021/12/23 02:40:43;;;;;;;26.17;13.85;;;-1.90;85.70;;;;;;6266333;22;20020;-77
2021/12/23 02:43:12;;;;;;;30.27;14.77;;;-1.90;85.70;;;;;;6266304;22;20017;-77
2021/12/23 02:45:39;;;;;;;27.30;14.98;;;-2.00;85.70;;;;;;6267688;22;20012;-78
2021/12/23 02:48:13;;;;;;;27.58;14.23;;;-2.00;85.60;;;;;;6269588;22;20032;-77
2021/12/23 02:50:41;;;;;;;29.60;15.20;;;-2.00;85.70;;;;;;6266733;22;20610;-78
2021/12/23 02:53:08;;;;;;;27.10;14.88;;;-2.00;85.70;;;;;;6268827;22;20020;-78
2021/12/23 02:55:34;;;;;;;30.35;15.43;;;-2.00;85.80;;;;;;6266446;22;20019;-77
2021/12/23 02:58:01;;;;;;;27.30;14.65;;;-2.00;85.60;;;;;;6265130;22;20021;-78
2021/12/23 03:00:29;;;;;;;30.98;15.02;;;-2.00;85.50;;;;;;6269003;22;20081;-77
2021/12/23 03:02:57;;;;;;;31.55;15.70;;;-2.00;85.30;;;;;;6260804;22;20040;-77
2021/12/23 03:05:24;;;;;;;27.40;13.95;;;-2.00;85.20;;;;;;6260674;22;20009;-77
2021/12/23 03:07:50;;;;;;;31.13;14.68;;;-1.90;85.10;;;;;;6262607;22;20017;-77
2021/12/23 03:10:17;;;;;;;27.45;14.77;;;-2.00;85.00;;;;;;6264399;22;20013;-77
2021/12/23 03:12:44;;;;;;;28.45;15.57;;;-1.90;84.80;;;;;;6266501;22;20081;-77
2021/12/23 03:15:10;;;;;;;29.92;14.85;;;-1.90;84.80;;;;;;6265246;22;20029;-77
2021/12/23 03:17:37;;;;;;;28.08;14.65;;;-1.90;84.70;;;;;;6271645;22;20013;-77
2021/12/23 03:20:05;;;;;;;29.17;15.90;;;-1.90;85.10;;;;;;6267454;22;20052;-77
2021/12/23 03:22:32;;;;;;;27.55;14.82;;;-1.90;84.80;;;;;;6267307;22;20021;-77
2021/12/23 03:24:58;;;;;;;28.65;15.23;;;-1.90;84.50;;;;;;6265264;22;20008;-77
2021/12/23 03:27:25;;;;;;;26.98;14.95;;;-1.90;84.70;;;;;;6267594;22;20024;-77
2021/12/23 03:29:52;;;;;;;27.52;14.13;;;-1.90;84.60;;;;;;6267616;22;20072;-77
2021/12/23 03:32:21;;;;;;;30.90;15.00;;;-2.00;84.90;;;;;;6267773;22;20032;-77
2021/12/23 03:34:48;;;;;;;27.48;15.02;;;-2.00;85.20;;;;;;6268721;22;20073;-77
2021/12/23 03:37:15;;;;;;;26.50;14.80;;;-2.00;85.40;;;;;;6268116;22;20027;-77
2021/12/23 03:39:42;;;;;;;29.42;14.80;;;-2.00;85.60;;;;;;6265586;22;20103;-77
2021/12/23 03:42:09;;;;;;;28.08;14.63;;;-1.90;84.90;;;;;;6265136;22;20024;-77
2021/12/23 03:44:36;;;;;;;31.20;15.85;;;-1.90;83.90;;;;;;6265176;22;20009;-77
2021/12/23 03:47:03;;;;;;;28.50;14.52;;;-1.80;83.90;;;;;;6263327;22;20051;-77
2021/12/23 03:49:29;;;;;;;29.38;14.73;;;-1.80;83.60;;;;;;6265094;22;20561;-77
2021/12/23 03:51:56;;;;;;;28.48;14.52;;;-1.80;83.70;;;;;;6267013;22;20609;-77
2021/12/23 03:54:23;;;;;;;27.77;15.20;;;-1.70;84.30;;;;;;6264906;22;20021;-77
2021/12/23 03:56:49;;;;;;;27.60;15.70;;;-1.70;84.60;;;;;;6263033;22;20231;-77
2021/12/23 03:59:16;;;;;;;27.25;14.90;;;-1.70;84.10;;;;;;6265334;22;20884;-77
2021/12/23 04:01:43;;;;;;;29.00;15.27;;;-1.70;84.40;;;;;;6267994;22;20813;-77
2021/12/23 04:04:10;;;;;;;29.00;14.88;;;-1.70;85.20;;;;;;6261903;22;20013;-77
2021/12/23 04:06:37;;;;;;;29.95;15.30;;;-1.70;84.00;;;;;;6264358;22;20044;-77
2021/12/23 04:09:04;;;;;;;28.45;15.75;;;-1.60;83.90;;;;;;6265983;22;20061;-77
2021/12/23 04:11:31;;;;;;;30.58;15.60;;;-1.60;84.00;;;;;;6264274;22;20232;-77
2021/12/23 04:13:58;;;;;;;30.58;15.45;;;-1.60;84.10;;;;;;6262602;22;20027;-77
2021/12/23 04:16:25;;;;;;;28.83;16.23;;;-1.60;83.20;;;;;;6263631;22;20043;-77
2021/12/23 04:18:54;;;;;;;26.27;16.17;;;-1.60;83.50;;;;;;6267705;22;20021;-77
2021/12/23 04:21:21;;;;;;;27.48;15.50;;;-1.60;84.20;;;;;;6265335;22;20045;-77
2021/12/23 04:23:48;;;;;;;36.28;16.98;;;-1.50;83.60;;;;;;6266622;22;20087;-77
2021/12/23 04:26:15;;;;;;;33.83;15.73;;;-1.60;83.40;;;;;;6267842;22;20059;-77
2021/12/23 04:28:46;;;;;;;31.48;16.08;;;-1.50;83.90;;;;;;6265815;22;20860;-77
2021/12/23 04:31:16;;;;;;;27.55;15.55;;;-1.50;84.40;;;;;;6264838;22;20112;-77
2021/12/23 04:33:45;;;;;;;29.85;16.13;;;-1.50;83.90;;;;;;6264692;22;20001;-77
2021/12/23 04:36:12;;;;;;;30.75;16.45;;;-1.50;84.00;;;;;;6266232;22;20008;-77
2021/12/23 04:38:41;;;;;;;32.58;16.17;;;-1.50;84.30;;;;;;6268504;22;20052;-77
2021/12/23 04:41:08;;;;;;;31.50;17.33;;;-1.50;85.00;;;;;;6266044;22;20035;-77
2021/12/23 04:43:35;;;;;;;34.15;16.73;;;-1.50;84.10;;;;;;6268324;22;20064;-77
2021/12/23 04:46:01;;;;;;;33.15;17.08;;;-1.50;84.30;;;;;;6268366;22;20068;-77
2021/12/23 04:48:31;;;;;;;31.85;17.75;;;-1.50;84.70;;;;;;6267242;22;20011;-77
2021/12/23 04:50:59;;;;;;;29.13;16.48;;;-1.50;83.90;;;;;;6267781;22;20043;-77
2021/12/23 04:53:26;;;;;;;32.67;16.65;;;-1.50;84.40;;;;;;6268585;22;20713;-77
2021/12/23 04:55:53;;;;;;;36.17;17.65;;;-1.50;84.70;;;;;;6269764;22;20044;-77
2021/12/23 04:58:20;;;;;;;32.95;16.13;;;-1.50;84.80;;;;;;6268742;22;20614;-77
2021/12/23 05:00:51;;;;;;;33.60;17.50;;;-1.50;85.20;;;;;;6265635;22;20012;-78
2021/12/23 05:03:21;;;;;;;32.78;18.33;;;-1.50;84.90;;;;;;6264965;22;20091;-77
2021/12/23 05:05:48;;;;;;;32.78;17.45;;;-1.50;85.10;;;;;;6267333;22;20061;-77
2021/12/23 05:08:15;;;;;;;34.40;18.00;;;-1.60;85.30;;;;;;6268352;22;20024;-77
2021/12/23 05:10:43;;;;;;;30.20;17.08;;;-1.50;85.40;;;;;;6268931;22;20080;-77
2021/12/23 05:13:10;;;;;;;38.70;18.70;;;-1.50;84.90;;;;;;6269159;22;20012;-77
2021/12/23 05:15:36;;;;;;;32.67;17.17;;;-1.60;85.50;;;;;;6268824;22;20030;-77
2021/12/23 05:18:04;;;;;;;35.60;18.67;;;-1.50;85.70;;;;;;6268265;22;20021;-77
2021/12/23 05:20:31;;;;;;;31.13;17.20;;;-1.50;85.70;;;;;;6269191;22;20107;-78
2021/12/23 05:22:58;;;;;;;35.10;18.17;;;-1.50;85.40;;;;;;6266689;22;20016;-77
2021/12/23 05:25:25;;;;;;;35.40;18.70;;;-1.60;85.40;;;;;;6269639;22;20179;-78
2021/12/23 05:27:52;;;;;;;33.30;18.17;;;-1.60;85.80;;;;;;6269261;22;20068;-77
2021/12/23 05:30:19;;;;;;;34.72;18.30;;;-1.60;85.50;;;;;;6270906;22;20035;-78
2021/12/23 05:32:46;;;;;;;31.90;17.92;;;-1.60;85.50;;;;;;6271814;22;20069;-78
2021/12/23 05:35:15;;;;;;;37.92;20.00;;;-1.70;85.60;;;;;;6272427;22;20017;-78
2021/12/23 05:37:42;;;;;;;36.55;18.52;;;-1.70;85.50;;;;;;6269501;22;20040;-77
2021/12/23 05:40:13;;;;;;;37.22;19.20;;;-1.70;85.70;;;;;;6269045;22;20032;-78
2021/12/23 05:42:43;;;;;;;36.47;17.98;;;-1.70;85.70;;;;;;6272430;22;20525;-78
2021/12/23 05:45:16;;;;;;;37.20;18.67;;;-1.70;85.80;;;;;;6272362;22;20036;-78
2021/12/23 05:47:44;;;;;;;36.17;18.92;;;-1.70;86.00;;;;;;6271984;22;20084;-78
2021/12/23 05:50:12;;;;;;;39.70;20.35;;;-1.70;86.00;;;;;;6270765;22;20041;-77
2021/12/23 05:52:39;;;;;;;37.28;18.42;;;-1.70;86.00;;;;;;6272682;22;20024;-77
2021/12/23 05:55:07;;;;;;;37.95;20.00;;;-1.70;86.40;;;;;;6269969;22;19996;-77
2021/12/23 05:57:35;;;;;;;37.72;20.10;;;-1.70;86.60;;;;;;6273258;22;20016;-77
2021/12/23 06:00:06;;;;;;;38.05;19.70;;;-1.70;86.40;;;;;;6272518;22;20024;-78
2021/12/23 06:02:32;;;;;;;37.83;19.25;;;-1.70;86.00;;;;;;6271034;22;20017;-78
2021/12/23 06:04:59;;;;;;;37.50;19.23;;;-1.70;86.20;;;;;;6273073;22;20017;-77
2021/12/23 06:07:26;;;;;;;42.10;20.40;;;-1.70;86.00;;;;;;6272437;22;20018;-76
2021/12/23 06:09:53;;;;;;;37.35;19.65;;;-1.70;85.80;;;;;;6272866;22;20013;-77
2021/12/23 06:12:19;;;;;;;44.45;20.88;;;-1.70;86.10;;;;;;6272498;22;20027;-76
2021/12/23 06:14:46;;;;;;;42.25;20.45;;;-1.70;85.50;;;;;;6272364;22;20028;-77
2021/12/23 06:17:12;;;;;;;43.40;21.25;;;-1.70;85.80;;;;;;6273193;22;20019;-75
2021/12/23 06:19:39;;;;;;;38.67;21.15;;;-1.70;86.30;;;;;;6273835;22;20013;-77
2021/12/23 06:22:06;;;;;;;43.03;21.38;;;-1.70;86.00;;;;;;6274014;22;19997;-77
2021/12/23 06:24:33;;;;;;;45.10;21.58;;;-1.60;86.40;;;;;;6271114;22;20216;-77
2021/12/23 06:26:59;;;;;;;46.30;21.33;;;-1.60;86.60;;;;;;6274128;22;20795;-77
2021/12/23 06:29:26;;;;;;;48.65;22.13;;;-1.60;86.40;;;;;;6272190;22;20013;-76
2021/12/23 06:31:53;;;;;;;47.25;22.38;;;-1.60;86.20;;;;;;6272871;22;20025;-76
2021/12/23 06:34:20;;;;;;;45.22;22.73;;;-1.60;86.30;;;;;;6273326;22;20009;-77
2021/12/23 06:36:49;;;;;;;46.42;21.83;;;-1.60;85.70;;;;;;6273542;22;20004;-76
2021/12/23 06:39:16;;;;;;;47.47;23.42;;;-1.60;86.50;;;;;;6272989;22;20020;-77
2021/12/23 06:41:43;;;;;;;55.03;23.30;;;-1.50;86.50;;;;;;6273308;22;20069;-77
2021/12/23 06:44:09;;;;;;;49.42;22.30;;;-1.60;86.20;;;;;;6273771;22;20024;-77
2021/12/23 06:46:38;;;;;;;45.65;22.75;;;-1.50;86.50;;;;;;6273015;22;20112;-77
2021/12/23 06:49:07;;;;;;;47.60;22.98;;;-1.50;86.50;;;;;;6270850;22;20021;-77
2021/12/23 06:51:35;;;;;;;46.45;22.95;;;-1.50;86.70;;;;;;6271898;22;20025;-76
2021/12/23 06:54:05;;;;;;;49.72;22.52;;;-1.50;86.50;;;;;;6269550;22;20008;-77
2021/12/23 06:56:34;;;;;;;48.80;23.25;;;-1.50;86.60;;;;;;6269949;22;20008;-76
2021/12/23 06:59:01;;;;;;;48.42;22.60;;;-1.50;86.70;;;;;;6271943;22;20518;-77
2021/12/23 07:01:28;;;;;;;49.72;24.52;;;-1.50;86.90;;;;;;6272930;22;19997;-77
2021/12/23 07:04:16;;;;;;;51.13;23.75;;;-1.50;86.90;;;;;;6269037;22;20004;-77
2021/12/23 07:06:56;;;;;;;49.08;23.73;;;-1.40;87.10;;;;;;6268940;22;20016;-76
2021/12/23 07:09:23;;;;;;;52.40;24.58;;;-1.50;86.70;;;;;;6268249;22;20016;-77
2021/12/23 07:11:53;;;;;;;51.92;24.80;;;-1.40;87.20;;;;;;6271475;22;20031;-77
2021/12/23 07:14:22;;;;;;;50.67;22.50;;;-1.40;87.20;;;;;;6264590;22;20012;-77
2021/12/23 07:16:49;;;;;;;54.03;24.50;;;-1.40;86.90;;;;;;6271682;22;20011;-77
2021/12/23 07:19:16;;;;;;;52.78;25.05;;;-1.40;86.80;;;;;;6259109;22;20016;-77
2021/12/23 07:21:42;;;;;;;49.70;23.30;;;-1.40;87.20;;;;;;6267833;22;20064;-77
2021/12/23 07:24:09;;;;;;;51.97;23.23;;;-1.40;87.20;;;;;;6268307;22;20113;-78
2021/12/23 07:26:36;;;;;;;53.42;24.42;;;-1.30;87.30;;;;;;6268525;22;20015;-77
2021/12/23 07:29:10;;;;;;;58.25;24.35;;;-1.40;87.20;;;;;;6264883;22;20031;-77
2021/12/23 07:31:37;;;;;;;53.45;25.33;;;-1.40;86.50;;;;;;6268881;22;20012;-78
2021/12/23 07:34:07;;;;;;;46.88;23.10;;;-1.40;86.60;;;;;;6267109;22;20052;-78
2021/12/23 07:36:41;;;;;;;49.97;23.55;;;-1.40;87.00;;;;;;6268142;22;20015;-78
2021/12/23 07:39:08;;;;;;;52.15;24.05;;;-1.30;87.10;;;;;;6270325;22;20009;-78
2021/12/23 07:42:03;;;;;;;52.47;24.92;;;-1.30;87.20;;;;;;6266148;22;20829;-77
2021/12/23 07:44:38;;;;;;;57.08;25.70;;;-1.40;87.10;;;;;;6266471;22;20073;-77
2021/12/23 07:47:08;;;;;;;48.05;23.13;;;-1.40;87.00;;;;;;6265781;22;20020;-77
2021/12/23 07:49:35;;;;;;;51.80;24.02;;;-1.30;87.20;;;;;;6264040;22;20025;-77
2021/12/23 07:52:02;;;;;;;49.53;23.70;;;-1.30;87.30;;;;;;6262956;22;20016;-77
2021/12/23 07:54:36;;;;;;;54.53;24.35;;;-1.40;86.90;;;;;;6263742;22;20013;-77
2021/12/23 07:57:05;;;;;;;58.35;23.38;;;-1.30;87.20;;;;;;6266442;22;20807;-78
2021/12/23 07:59:32;;;;;;;49.45;23.13;;;-1.30;87.30;;;;;;6267283;22;20021;-77
2021/12/23 08:02:02;;;;;;;49.97;22.85;;;-1.20;87.40;;;;;;6268322;22;20005;-77
2021/12/23 08:04:33;;;;;;;56.75;24.52;;;-1.30;87.20;;;;;;6268542;22;20633;-77
2021/12/23 08:07:03;;;;;;;47.80;22.55;;;-1.20;87.40;;;;;;6269283;22;20009;-77
2021/12/23 08:09:30;;;;;;;48.83;24.05;;;-1.30;86.70;;;;;;6266472;22;20021;-77
2021/12/23 08:11:59;;;;;;;56.90;25.63;;;-1.30;86.70;;;;;;6265497;22;20028;-77
2021/12/23 08:14:26;;;;;;;49.75;23.73;;;-1.30;87.40;;;;;;6260799;22;20021;-77
2021/12/23 08:17:00;;;;;;;49.08;23.88;;;-1.30;86.70;;;;;;6262117;22;20020;-77
2021/12/23 08:19:29;;;;;;;51.42;23.13;;;-1.30;86.90;;;;;;6260861;22;20004;-77
2021/12/23 08:22:10;;;;;;;;;;;;;;;;;;;;;
2021/12/23 08:25:04;;;;;;;49.67;22.77;;;-1.20;86.90;;;;;;6244793;22;20031;-77
2021/12/23 08:27:31;;;;;;;51.25;22.88;;;-1.20;86.80;;;;;;6265113;22;20031;-77
2021/12/23 08:30:03;;;;;;;56.33;25.33;;;-1.20;87.30;;;;;;6256640;22;20122;-77
2021/12/23 08:32:30;;;;;;;50.35;23.25;;;-1.20;86.70;;;;;;6255732;22;20255;-77
2021/12/23 08:34:59;;;;;;;51.38;23.55;;;-1.20;86.70;;;;;;6257418;22;20017;-77
2021/12/23 08:37:26;;;;;;;50.90;23.38;;;-1.10;87.00;;;;;;6270006;22;20016;-79
2021/12/23 08:39:55;;;;;;;48.55;22.75;;;-1.10;87.00;;;;;;6266547;22;20021;-79
2021/12/23 08:42:23;;;;;;;52.80;23.77;;;-1.10;86.50;;;;;;6264962;22;20053;-79
2021/12/23 08:44:50;;;;;;;48.15;23.50;;;-1.10;86.70;;;;;;6269216;22;20364;-79
2021/12/23 08:47:17;;;;;;;53.88;24.30;;;-1.10;86.50;;;;;;6267514;22;20016;-78
2021/12/23 08:49:47;;;;;;;46.78;22.35;;;-1.10;86.50;;;;;;6269264;22;20020;-78
2021/12/23 08:52:19;;;;;;;48.72;22.88;;;-1.10;86.50;;;;;;6268423;22;20460;-78
2021/12/23 08:54:46;;;;;;;50.17;24.35;;;-1.00;87.10;;;;;;6269214;22;20001;-79
2021/12/23 08:57:13;;;;;;;50.22;23.20;;;-0.90;87.10;;;;;;6267323;22;20064;-78
2021/12/23 08:59:40;;;;;;;55.80;24.20;;;-0.90;86.20;;;;;;6269633;22;20009;-80
2021/12/23 09:02:15;;;;;;;50.58;23.10;;;-0.90;86.70;;;;;;6268477;22;19997;-79
2021/12/23 09:04:53;;;;;;;50.80;23.23;;;-0.90;86.80;;;;;;6270407;22;20071;-80
2021/12/23 09:07:25;;;;;;;51.85;23.38;;;-0.90;86.90;;;;;;6267327;22;20026;-80
2021/12/23 09:09:58;;;;;;;52.97;24.13;;;-0.80;87.00;;;;;;6264187;22;20023;-80
2021/12/23 09:12:27;;;;;;;47.95;22.90;;;-0.70;87.30;;;;;;6259598;22;20024;-78
2021/12/23 09:15:14;;;;;;;48.50;21.73;;;-0.70;86.40;;;;;;6261813;22;20047;-80
2021/12/23 09:17:42;;;;;;;47.75;23.45;;;-0.70;86.20;;;;;;6261205;22;20076;-80
2021/12/23 09:20:10;;;;;;;52.60;23.75;;;-0.70;85.60;;;;;;6261573;22;20466;-80
2021/12/23 09:22:41;;;;;;;45.80;22.43;;;-0.60;85.90;;;;;;6261100;22;20029;-77
2021/12/23 09:25:22;;;;;;;44.00;22.13;;;-0.60;85.80;;;;;;6262411;22;20024;-80
2021/12/23 09:33:39;;;;;;;51.60;23.83;;;-0.50;86.60;;;;;;6264616;22;20023;-80
2021/12/23 09:36:06;;;;;;;54.70;23.65;;;-0.50;86.40;;;;;;6262699;22;20594;-81
2021/12/23 09:38:33;;;;;;;48.92;22.48;;;-0.40;86.00;;;;;;6268262;22;20027;-80
2021/12/23 09:41:10;;;;;;;46.30;22.45;;;-0.40;86.20;;;;;;6270005;22;20829;-80
2021/12/23 09:43:43;;;;;;;49.83;22.60;;;-0.40;85.50;;;;;;6269177;22;20036;-80
2021/12/23 09:46:16;;;;;;;47.67;22.70;;;-0.40;86.40;;;;;;6270574;22;20022;-80
2021/12/23 09:48:45;;;;;;;51.42;24.00;;;-0.40;86.20;;;;;;6269860;22;20017;-79
2021/12/23 09:51:17;;;;;;;48.65;22.90;;;-0.30;86.10;;;;;;6268035;22;20099;-80
2021/12/23 09:53:54;;;;;;;48.95;22.70;;;-0.30;86.30;;;;;;6267124;22;20012;-79
2021/12/23 09:56:22;;;;;;;50.58;23.73;;;-0.30;85.40;;;;;;6269024;22;20023;-80
2021/12/23 09:58:49;;;;;;;49.83;23.55;;;-0.20;86.30;;;;;;6269289;22;20001;-79
2021/12/23 10:01:18;;;;;;;48.25;23.38;;;-0.20;85.80;;;;;;6269475;22;20816;-80
2021/12/23 10:03:45;;;;;;;51.08;24.52;;;-0.20;85.70;;;;;;6267252;22;20005;-79
2021/12/23 10:06:12;;;;;;;52.40;24.30;;;-0.20;85.40;;;;;;6269647;22;20130;-79
2021/12/23 10:08:40;;;;;;;49.65;22.83;;;-0.20;85.40;;;;;;6270602;22;20013;-80
2021/12/23 10:31:48;;;;;;;52.38;23.50;;;0.30;83.90;;;;;;6271433;22;20029;-80
2021/12/23 10:39:47;;;;;;;48.58;22.95;;;0.30;85.10;;;;;;6274464;22;20000;-79
2021/12/23 10:42:21;;;;;;;50.33;22.58;;;0.30;84.80;;;;;;6273800;22;20026;-79
2021/12/23 10:44:54;;;;;;;50.30;22.30;;;0.30;85.00;;;;;;6274533;22;20025;-80
2021/12/23 10:47:35;;;;;;;50.88;22.10;;;0.30;84.80;;;;;;6271889;22;20028;-79
2021/12/23 10:50:23;;;;;;;52.20;24.73;;;0.30;85.00;;;;;;6273330;22;20029;-79
2021/12/23 10:53:01;;;;;;;51.20;21.63;;;0.30;84.60;;;;;;6271708;22;20017;-79
2021/12/23 10:58:16;;;;;;;56.58;22.75;;;0.40;85.20;;;;;;6273893;22;20009;-79
2021/12/23 11:00:49;;;;;;;55.53;23.10;;;0.40;84.70;;;;;;6272217;22;20003;-79
2021/12/23 11:03:43;;;;;;;47.97;22.17;;;0.40;85.20;;;;;;6274823;22;20043;-79
2021/12/23 11:06:22;;;;;;;48.20;22.25;;;0.40;85.20;;;;;;6272977;22;20024;-79
2021/12/23 11:09:10;;;;;;;47.75;22.15;;;0.50;85.00;;;;;;6275214;22;20004;-79
2021/12/23 11:37:38;;;;;;;50.03;22.48;;;1.10;84.80;;;;;;6271769;22;20080;-80
2021/12/23 11:40:11;;;;;;;45.90;20.08;;;1.20;84.40;;;;;;6272184;22;20004;-80
2021/12/23 11:45:52;;;;;;;46.10;19.58;;;1.20;83.90;;;;;;6273277;22;20011;-79
2021/12/23 11:48:25;;;;;;;46.03;21.38;;;1.30;84.70;;;;;;6271573;22;20012;-80
2021/12/23 11:51:11;;;;;;;40.17;20.77;;;1.30;83.30;;;;;;6272920;22;20077;-79
2021/12/23 11:53:48;;;;;;;42.08;19.85;;;1.40;83.70;;;;;;6270989;22;20035;-80
2021/12/23 11:56:19;;;;;;;46.95;21.85;;;1.40;82.70;;;;;;6274052;22;20013;-79
2021/12/23 11:59:09;;;;;;;42.40;20.15;;;1.50;83.10;;;;;;6250935;22;20080;-79
2021/12/23 12:01:53;;;;;;;44.65;20.80;;;1.60;83.90;;;;;;6272202;22;20031;-79
2021/12/23 12:04:37;;;;;;;41.10;19.67;;;1.70;83.40;;;;;;6246618;22;19989;-79
2021/12/23 12:07:23;;;;;;;45.42;20.40;;;1.70;82.90;;;;;;6272619;22;20009;-79
2021/12/23 12:09:59;;;;;;;43.38;19.80;;;1.80;83.00;;;;;;6272920;22;20087;-79
2021/12/23 12:13:04;;;;;;;47.35;20.52;;;1.70;82.80;;;;;;6271516;22;20004;-79
2021/12/23 12:15:38;;;;;;;46.10;21.75;;;1.80;82.90;;;;;;6272122;22;20008;-80
2021/12/23 12:18:19;;;;;;;43.53;19.85;;;1.90;82.50;;;;;;6272550;22;20001;-80
2021/12/23 12:21:26;;;;;;;45.88;20.40;;;2.00;83.50;;;;;;6272988;22;20009;-79
2021/12/23 12:24:23;;;;;;;42.58;21.15;;;2.00;83.60;;;;;;6270783;22;20017;-80
2021/12/23 12:27:01;;;;;;;46.00;20.67;;;2.00;82.20;;;;;;6271326;22;20052;-79
2021/12/23 12:29:41;;;;;;;43.88;20.17;;;2.10;83.70;;;;;;6271064;22;20017;-80
2021/12/23 12:32:35;;;;;;;45.92;19.98;;;2.20;82.50;;;;;;6272812;22;20020;-79
2021/12/23 12:35:20;;;;;;;40.47;19.88;;;2.20;82.70;;;;;;6272373;22;20455;-79
2021/12/23 12:37:51;;;;;;;45.78;20.80;;;2.20;82.80;;;;;;6275101;22;20029;-80
2021/12/23 12:40:18;;;;;;;44.40;19.33;;;2.40;83.80;;;;;;6275242;22;20009;-80
2021/12/23 12:42:47;;;;;;;43.25;20.45;;;2.40;82.20;;;;;;6273893;22;20009;-79
2021/12/23 12:45:26;;;;;;;44.65;21.45;;;2.40;82.70;;;;;;6271677;22;20001;-80
2021/12/23 12:48:04;;;;;;;45.22;20.35;;;2.50;82.90;;;;;;6273726;22;19997;-79
2021/12/23 12:50:43;;;;;;;41.60;20.10;;;2.40;82.40;;;;;;6273524;22;20015;-79
2021/12/23 12:53:15;;;;;;;39.72;19.95;;;2.50;82.90;;;;;;6273559;22;20036;-78
2021/12/23 12:55:44;;;;;;;47.30;20.73;;;2.40;81.90;;;;;;6272161;22;20013;-79
2021/12/23 12:58:14;;;;;;;45.40;20.48;;;2.50;82.50;;;;;;6274069;22;20097;-79
2021/12/23 13:00:50;;;;;;;42.95;21.50;;;2.40;82.40;;;;;;6271471;22;20256;-80
2021/12/23 13:03:51;;;;;;;46.30;21.02;;;2.40;82.40;;;;;;6254349;22;20008;-79
2021/12/23 13:06:18;;;;;;;47.75;20.95;;;2.50;83.20;;;;;;6272784;22;20929;-79
2021/12/23 13:08:45;;;;;;;49.70;21.35;;;2.50;82.60;;;;;;6274554;22;20001;-79
2021/12/23 13:11:18;;;;;;;46.33;20.30;;;2.60;82.80;;;;;;6273612;22;19996;-79
2021/12/23 13:13:59;;;;;;;41.35;20.15;;;2.60;83.10;;;;;;6272101;22;20258;-79
2021/12/23 13:16:29;;;;;;;41.35;19.90;;;2.50;81.90;;;;;;6272898;22;20005;-79
2021/12/23 13:19:37;;;;;;;44.65;21.00;;;2.60;82.90;;;;;;6274130;22;20029;-79
2021/12/23 13:22:15;;;;;;;47.67;20.63;;;2.70;83.30;;;;;;6266249;22;20024;-78
2021/12/23 13:24:44;;;;;;;40.28;20.13;;;2.70;83.20;;;;;;6273280;22;20013;-78
2021/12/23 13:27:11;;;;;;;45.03;21.45;;;2.70;82.40;;;;;;6274579;22;20008;-78
2021/12/23 13:29:40;;;;;;;44.25;20.33;;;2.80;82.40;;;;;;6274364;22;20013;-78
2021/12/23 13:32:08;;;;;;;47.83;21.38;;;2.80;83.00;;;;;;6274133;22;20008;-79
2021/12/23 13:34:34;;;;;;;46.38;20.25;;;3.00;83.60;;;;;;6274661;22;20008;-79
2021/12/23 13:37:06;;;;;;;39.58;19.85;;;3.00;82.50;;;;;;6272080;22;20019;-79
2021/12/23 13:39:38;;;;;;;45.20;21.38;;;3.00;82.50;;;;;;6273344;22;20028;-79
2021/12/23 13:42:09;;;;;;;43.60;20.52;;;2.90;82.20;;;;;;6272039;22;20007;-79
2021/12/23 13:44:46;;;;;;;38.70;19.65;;;2.90;82.80;;;;;;6274563;22;20059;-78
2021/12/23 13:47:23;;;;;;;46.30;22.83;;;2.90;83.30;;;;;;6273735;22;20013;-79
2021/12/23 13:49:56;;;;;;;44.97;20.98;;;3.00;82.70;;;;;;6273680;22;20016;-79
2021/12/23 13:52:24;;;;;;;44.38;21.90;;;2.90;83.10;;;;;;6273749;22;20017;-79
2021/12/23 13:54:59;;;;;;;45.80;21.85;;;2.90;82.80;;;;;;6273996;22;20020;-79
2021/12/23 13:57:28;;;;;;;42.60;20.45;;;2.90;83.00;;;;;;6274290;22;20025;-79
2021/12/23 13:59:55;;;;;;;48.17;21.20;;;2.90;83.10;;;;;;6272740;22;20009;-78